sensor_id;sensor_type;location;lat;lon;timestamp;temperature;humidity
73572;DHT22;61854;48.510;-2.770;2023-08-01T00:01:30;17.00;99.90
73572;DHT22;61854;48.510;-2.770;2023-08-01T00:03:56;17.00;99.90
73572;DHT22;61854;48.510;-2.770;2023-08-01T00:06:21;17.00;99.90
73572;DHT22;61854;48.510;-2.770;2023-08-01T00:08:48;17.10;99.90
73572;DHT22;61854;48.510;-2.770;2023-08-01T00:11:14;17.10;99.90
73572;DHT22;61854;48.510;-2.770;2023-08-01T00:13:41;17.10;99.90
73572;DHT22;61854;48.510;-2.770;2023-08-01T00:16:08;17.00;99.90
73572;DHT22;61854;48.510;-2.770;2023-08-01T00:18:34;17.00;99.90
73572;DHT22;61854;48.510;-2.770;2023-08-01T00:21:00;16.90;99.90
73572;DHT22;61854;48.510;-2.770;2023-08-01T00:23:25;16.80;99.90
73572;DHT22;61854;48.510;-2.770;2023-08-01T00:25:51;16.80;99.90
73572;DHT22;61854;48.510;-2.770;2023-08-01T00:28:22;16.80;99.90
73572;DHT22;61854;48.510;-2.770;2023-08-01T00:30:48;16.70;99.90
73572;DHT22;61854;48.510;-2.770;2023-08-01T00:33:13;16.80;99.90
73572;DHT22;61854;48.510;-2.770;2023-08-01T00:35:40;16.80;99.90
73572;DHT22;61854;48.510;-2.770;2023-08-01T00:38:06;16.70;99.90
73572;DHT22;61854;48.510;-2.770;2023-08-01T00:40:32;16.60;99.90
73572;DHT22;61854;48.510;-2.770;2023-08-01T00:42:58;16.60;99.90
73572;DHT22;61854;48.510;-2.770;2023-08-01T00:45:24;16.70;99.90
73572;DHT22;61854;48.510;-2.770;2023-08-01T00:47:56;16.70;99.90
73572;DHT22;61854;48.510;-2.770;2023-08-01T00:50:22;16.70;99.90
73572;DHT22;61854;48.510;-2.770;2023-08-01T00:52:50;16.60;99.90
73572;DHT22;61854;48.510;-2.770;2023-08-01T00:55:17;16.70;99.90
73572;DHT22;61854;48.510;-2.770;2023-08-01T00:57:43;16.60;99.90
73572;DHT22;61854;48.510;-2.770;2023-08-01T01:00:09;16.60;99.90
73572;DHT22;61854;48.510;-2.770;2023-08-01T01:02:36;16.60;99.90
73572;DHT22;61854;48.510;-2.770;2023-08-01T01:05:03;16.60;99.90
73572;DHT22;61854;48.510;-2.770;2023-08-01T01:07:29;16.60;99.90
73572;DHT22;61854;48.510;-2.770;2023-08-01T01:09:55;16.60;99.90
73572;DHT22;61854;48.510;-2.770;2023-08-01T01:12:20;16.70;99.90
73572;DHT22;61854;48.510;-2.770;2023-08-01T01:14:46;16.60;99.90
73572;DHT22;61854;48.510;-2.770;2023-08-01T01:17:12;16.60;99.90
73572;DHT22;61854;48.510;-2.770;2023-08-01T01:19:38;16.60;99.90
73572;DHT22;61854;48.510;-2.770;2023-08-01T01:22:07;16.60;99.90
73572;DHT22;61854;48.510;-2.770;2023-08-01T01:24:35;16.60;99.90
73572;DHT22;61854;48.510;-2.770;2023-08-01T01:27:01;16.50;99.90
73572;DHT22;61854;48.510;-2.770;2023-08-01T01:29:29;16.60;99.90
73572;DHT22;61854;48.510;-2.770;2023-08-01T01:31:56;16.60;99.90
73572;DHT22;61854;48.510;-2.770;2023-08-01T01:34:23;16.50;99.90
73572;DHT22;61854;48.510;-2.770;2023-08-01T01:36:49;16.50;99.90
73572;DHT22;61854;48.510;-2.770;2023-08-01T01:39:14;16.50;99.90
73572;DHT22;61854;48.510;-2.770;2023-08-01T01:41:40;16.40;99.90
73572;DHT22;61854;48.510;-2.770;2023-08-01T01:44:06;16.50;99.90
73572;DHT22;61854;48.510;-2.770;2023-08-01T01:46:31;16.50;99.90
73572;DHT22;61854;48.510;-2.770;2023-08-01T01:48:57;16.40;99.90
73572;DHT22;61854;48.510;-2.770;2023-08-01T01:51:26;16.40;99.90
73572;DHT22;61854;48.510;-2.770;2023-08-01T01:53:51;16.40;99.90
73572;DHT22;61854;48.510;-2.770;2023-08-01T01:56:17;16.40;99.90
73572;DHT22;61854;48.510;-2.770;2023-08-01T01:58:43;16.40;99.90
73572;DHT22;61854;48.510;-2.770;2023-08-01T02:01:09;16.40;99.90
73572;DHT22;61854;48.510;-2.770;2023-08-01T02:03:34;16.40;99.90
73572;DHT22;61854;48.510;-2.770;2023-08-01T02:06:01;16.40;99.90
73572;DHT22;61854;48.510;-2.770;2023-08-01T02:08:29;16.40;99.90
73572;DHT22;61854;48.510;-2.770;2023-08-01T02:10:54;16.40;99.90
73572;DHT22;61854;48.510;-2.770;2023-08-01T02:13:26;16.40;99.90
73572;DHT22;61854;48.510;-2.770;2023-08-01T02:15:52;16.40;99.90
73572;DHT22;61854;48.510;-2.770;2023-08-01T02:18:17;16.50;99.90
73572;DHT22;61854;48.510;-2.770;2023-08-01T02:20:43;16.50;99.90
73572;DHT22;61854;48.510;-2.770;2023-08-01T02:23:09;16.40;99.90
73572;DHT22;61854;48.510;-2.770;2023-08-01T02:25:41;16.40;99.90
73572;DHT22;61854;48.510;-2.770;2023-08-01T02:28:07;16.40;99.90
73572;DHT22;61854;48.510;-2.770;2023-08-01T02:30:34;16.40;99.90
73572;DHT22;61854;48.510;-2.770;2023-08-01T02:33:00;16.30;99.90
73572;DHT22;61854;48.510;-2.770;2023-08-01T02:35:25;16.40;99.90
73572;DHT22;61854;48.510;-2.770;2023-08-01T02:37:51;16.40;99.90
73572;DHT22;61854;48.510;-2.770;2023-08-01T02:40:17;16.40;99.90
73572;DHT22;61854;48.510;-2.770;2023-08-01T02:42:42;16.40;99.90
73572;DHT22;61854;48.510;-2.770;2023-08-01T02:45:08;16.50;99.90
73572;DHT22;61854;48.510;-2.770;2023-08-01T02:47:34;16.50;99.90
73572;DHT22;61854;48.510;-2.770;2023-08-01T02:50:00;16.40;99.90
73572;DHT22;61854;48.510;-2.770;2023-08-01T02:52:25;16.50;99.90
73572;DHT22;61854;48.510;-2.770;2023-08-01T02:54:51;16.50;99.90
73572;DHT22;61854;48.510;-2.770;2023-08-01T02:57:16;16.50;99.90
73572;DHT22;61854;48.510;-2.770;2023-08-01T02:59:42;16.50;99.90
73572;DHT22;61854;48.510;-2.770;2023-08-01T03:02:08;16.50;99.90
73572;DHT22;61854;48.510;-2.770;2023-08-01T03:04:33;16.50;99.90
73572;DHT22;61854;48.510;-2.770;2023-08-01T03:06:59;16.60;99.90
73572;DHT22;61854;48.510;-2.770;2023-08-01T03:09:24;16.50;99.90
73572;DHT22;61854;48.510;-2.770;2023-08-01T03:11:50;16.50;99.90
73572;DHT22;61854;48.510;-2.770;2023-08-01T03:14:16;16.50;99.90
73572;DHT22;61854;48.510;-2.770;2023-08-01T03:16:42;16.50;99.90
73572;DHT22;61854;48.510;-2.770;2023-08-01T03:19:07;16.50;99.90
73572;DHT22;61854;48.510;-2.770;2023-08-01T03:21:34;16.60;99.90
73572;DHT22;61854;48.510;-2.770;2023-08-01T03:24:01;16.50;99.90
73572;DHT22;61854;48.510;-2.770;2023-08-01T03:26:26;16.60;99.90
73572;DHT22;61854;48.510;-2.770;2023-08-01T03:28:55;16.60;99.90
73572;DHT22;61854;48.510;-2.770;2023-08-01T03:31:22;16.70;99.90
73572;DHT22;61854;48.510;-2.770;2023-08-01T03:33:48;16.70;99.90
73572;DHT22;61854;48.510;-2.770;2023-08-01T03:36:13;16.70;99.90
73572;DHT22;61854;48.510;-2.770;2023-08-01T03:38:40;16.60;99.90
73572;DHT22;61854;48.510;-2.770;2023-08-01T03:41:05;16.60;99.90
73572;DHT22;61854;48.510;-2.770;2023-08-01T03:43:31;16.70;99.90
73572;DHT22;61854;48.510;-2.770;2023-08-01T03:45:56;16.70;99.90
73572;DHT22;61854;48.510;-2.770;2023-08-01T03:48:22;16.70;99.90
73572;DHT22;61854;48.510;-2.770;2023-08-01T03:50:48;16.70;99.90
73572;DHT22;61854;48.510;-2.770;2023-08-01T03:53:13;16.70;99.90
73572;DHT22;61854;48.510;-2.770;2023-08-01T03:55:39;16.70;99.90
73572;DHT22;61854;48.510;-2.770;2023-08-01T03:58:05;16.60;99.90
73572;DHT22;61854;48.510;-2.770;2023-08-01T04:00:31;16.60;99.90
73572;DHT22;61854;48.510;-2.770;2023-08-01T04:03:00;16.60;99.90
73572;DHT22;61854;48.510;-2.770;2023-08-01T04:05:27;16.60;99.90
73572;DHT22;61854;48.510;-2.770;2023-08-01T04:07:53;16.50;99.90
73572;DHT22;61854;48.510;-2.770;2023-08-01T04:10:21;16.50;99.90
73572;DHT22;61854;48.510;-2.770;2023-08-01T04:12:46;16.60;99.90
73572;DHT22;61854;48.510;-2.770;2023-08-01T04:15:12;16.60;99.90
73572;DHT22;61854;48.510;-2.770;2023-08-01T04:17:38;16.60;99.90
73572;DHT22;61854;48.510;-2.770;2023-08-01T04:20:04;16.60;99.90
73572;DHT22;61854;48.510;-2.770;2023-08-01T04:22:29;16.60;99.90
73572;DHT22;61854;48.510;-2.770;2023-08-01T04:24:55;16.50;99.90
73572;DHT22;61854;48.510;-2.770;2023-08-01T04:27:21;16.50;99.90
73572;DHT22;61854;48.510;-2.770;2023-08-01T04:29:47;16.40;99.90
73572;DHT22;61854;48.510;-2.770;2023-08-01T04:32:13;16.40;99.90
73572;DHT22;61854;48.510;-2.770;2023-08-01T04:34:41;16.50;99.90
73572;DHT22;61854;48.510;-2.770;2023-08-01T04:37:06;16.50;99.90
73572;DHT22;61854;48.510;-2.770;2023-08-01T04:39:32;16.40;99.90
73572;DHT22;61854;48.510;-2.770;2023-08-01T04:41:58;16.40;99.90
73572;DHT22;61854;48.510;-2.770;2023-08-01T04:44:23;16.40;99.90
73572;DHT22;61854;48.510;-2.770;2023-08-01T04:46:49;16.40;99.90
73572;DHT22;61854;48.510;-2.770;2023-08-01T04:49:14;16.30;99.90
73572;DHT22;61854;48.510;-2.770;2023-08-01T04:51:40;16.30;99.90
73572;DHT22;61854;48.510;-2.770;2023-08-01T04:54:06;16.30;99.90
73572;DHT22;61854;48.510;-2.770;2023-08-01T04:56:32;16.30;99.90
73572;DHT22;61854;48.510;-2.770;2023-08-01T04:58:57;16.30;99.90
73572;DHT22;61854;48.510;-2.770;2023-08-01T05:01:24;16.30;99.90
73572;DHT22;61854;48.510;-2.770;2023-08-01T05:03:50;16.20;99.90
73572;DHT22;61854;48.510;-2.770;2023-08-01T05:06:16;16.20;99.90
73572;DHT22;61854;48.510;-2.770;2023-08-01T05:08:42;16.20;99.90
73572;DHT22;61854;48.510;-2.770;2023-08-01T05:11:08;16.20;99.90
73572;DHT22;61854;48.510;-2.770;2023-08-01T05:13:33;16.20;99.90
73572;DHT22;61854;48.510;-2.770;2023-08-01T05:15:59;16.10;99.90
73572;DHT22;61854;48.510;-2.770;2023-08-01T05:18:24;16.10;99.90
73572;DHT22;61854;48.510;-2.770;2023-08-01T05:20:50;16.10;99.90
73572;DHT22;61854;48.510;-2.770;2023-08-01T05:23:16;16.10;99.90
73572;DHT22;61854;48.510;-2.770;2023-08-01T05:25:41;16.10;99.90
73572;DHT22;61854;48.510;-2.770;2023-08-01T05:28:07;16.10;99.90
73572;DHT22;61854;48.510;-2.770;2023-08-01T05:30:33;16.10;99.90
73572;DHT22;61854;48.510;-2.770;2023-08-01T05:32:58;16.10;99.90
73572;DHT22;61854;48.510;-2.770;2023-08-01T05:35:24;16.10;99.90
73572;DHT22;61854;48.510;-2.770;2023-08-01T05:37:49;16.00;99.90
73572;DHT22;61854;48.510;-2.770;2023-08-01T05:40:15;16.10;99.90
73572;DHT22;61854;48.510;-2.770;2023-08-01T05:42:41;16.10;99.90
73572;DHT22;61854;48.510;-2.770;2023-08-01T05:45:07;16.10;99.90
73572;DHT22;61854;48.510;-2.770;2023-08-01T05:47:32;16.10;99.90
73572;DHT22;61854;48.510;-2.770;2023-08-01T05:49:58;16.10;99.90
73572;DHT22;61854;48.510;-2.770;2023-08-01T05:52:24;16.20;99.90
73572;DHT22;61854;48.510;-2.770;2023-08-01T05:54:49;16.30;99.90
73572;DHT22;61854;48.510;-2.770;2023-08-01T05:57:15;16.30;99.90
73572;DHT22;61854;48.510;-2.770;2023-08-01T05:59:41;16.30;99.90
73572;DHT22;61854;48.510;-2.770;2023-08-01T06:02:07;16.40;99.90
73572;DHT22;61854;48.510;-2.770;2023-08-01T06:04:32;16.40;99.90
73572;DHT22;61854;48.510;-2.770;2023-08-01T06:06:58;16.40;99.90
73572;DHT22;61854;48.510;-2.770;2023-08-01T06:09:24;16.50;99.90
73572;DHT22;61854;48.510;-2.770;2023-08-01T06:11:50;16.50;99.90
73572;DHT22;61854;48.510;-2.770;2023-08-01T06:14:17;16.60;99.90
73572;DHT22;61854;48.510;-2.770;2023-08-01T06:16:43;16.60;99.90
73572;DHT22;61854;48.510;-2.770;2023-08-01T06:19:08;16.50;99.90
73572;DHT22;61854;48.510;-2.770;2023-08-01T06:21:34;16.50;99.90
73572;DHT22;61854;48.510;-2.770;2023-08-01T06:24:00;16.50;99.90
73572;DHT22;61854;48.510;-2.770;2023-08-01T06:26:26;16.50;99.90
73572;DHT22;61854;48.510;-2.770;2023-08-01T06:28:51;16.50;99.90
73572;DHT22;61854;48.510;-2.770;2023-08-01T06:31:21;16.50;99.90
73572;DHT22;61854;48.510;-2.770;2023-08-01T06:33:47;16.50;99.90
73572;DHT22;61854;48.510;-2.770;2023-08-01T06:36:13;16.60;99.90
73572;DHT22;61854;48.510;-2.770;2023-08-01T06:38:39;16.60;99.90
73572;DHT22;61854;48.510;-2.770;2023-08-01T06:41:05;16.70;99.90
73572;DHT22;61854;48.510;-2.770;2023-08-01T06:43:30;16.60;99.90
73572;DHT22;61854;48.510;-2.770;2023-08-01T06:45:56;16.70;99.90
73572;DHT22;61854;48.510;-2.770;2023-08-01T06:48:21;16.80;99.90
73572;DHT22;61854;48.510;-2.770;2023-08-01T06:50:47;16.90;99.90
73572;DHT22;61854;48.510;-2.770;2023-08-01T06:53:13;17.00;99.90
73572;DHT22;61854;48.510;-2.770;2023-08-01T06:55:38;17.10;99.90
73572;DHT22;61854;48.510;-2.770;2023-08-01T06:58:05;17.10;99.90
73572;DHT22;61854;48.510;-2.770;2023-08-01T07:00:31;17.00;99.90
73572;DHT22;61854;48.510;-2.770;2023-08-01T07:02:57;17.10;99.90
73572;DHT22;61854;48.510;-2.770;2023-08-01T07:05:23;17.20;99.90
73572;DHT22;61854;48.510;-2.770;2023-08-01T07:07:49;17.30;99.90
73572;DHT22;61854;48.510;-2.770;2023-08-01T07:10:14;17.40;99.90
73572;DHT22;61854;48.510;-2.770;2023-08-01T07:12:40;17.50;99.90
73572;DHT22;61854;48.510;-2.770;2023-08-01T07:15:06;17.70;99.90
73572;DHT22;61854;48.510;-2.770;2023-08-01T07:17:32;17.80;99.90
73572;DHT22;61854;48.510;-2.770;2023-08-01T07:19:57;17.90;99.90
73572;DHT22;61854;48.510;-2.770;2023-08-01T07:22:23;18.00;99.90
73572;DHT22;61854;48.510;-2.770;2023-08-01T07:24:53;18.20;99.90
73572;DHT22;61854;48.510;-2.770;2023-08-01T07:27:19;18.10;99.70
73572;DHT22;61854;48.510;-2.770;2023-08-01T07:29:45;18.30;99.60
73572;DHT22;61854;48.510;-2.770;2023-08-01T07:32:10;18.30;97.50
73572;DHT22;61854;48.510;-2.770;2023-08-01T07:34:36;18.20;98.90
73572;DHT22;61854;48.510;-2.770;2023-08-01T07:37:02;18.30;99.10
73572;DHT22;61854;48.510;-2.770;2023-08-01T07:39:28;18.30;99.10
73572;DHT22;61854;48.510;-2.770;2023-08-01T07:41:55;18.40;97.90
73572;DHT22;61854;48.510;-2.770;2023-08-01T07:44:21;18.30;99.80
73572;DHT22;61854;48.510;-2.770;2023-08-01T07:46:46;18.40;98.80
73572;DHT22;61854;48.510;-2.770;2023-08-01T07:49:12;18.30;99.30
73572;DHT22;61854;48.510;-2.770;2023-08-01T07:51:38;18.30;98.80
73572;DHT22;61854;48.510;-2.770;2023-08-01T07:54:03;18.40;98.90
73572;DHT22;61854;48.510;-2.770;2023-08-01T07:56:29;18.50;98.50
73572;DHT22;61854;48.510;-2.770;2023-08-01T07:58:55;18.70;98.00
73572;DHT22;61854;48.510;-2.770;2023-08-01T08:01:20;18.70;97.70
73572;DHT22;61854;48.510;-2.770;2023-08-01T08:03:46;18.70;98.00
73572;DHT22;61854;48.510;-2.770;2023-08-01T08:06:12;18.70;98.10
73572;DHT22;61854;48.510;-2.770;2023-08-01T08:08:37;18.80;97.70
73572;DHT22;61854;48.510;-2.770;2023-08-01T08:11:03;19.00;95.60
73572;DHT22;61854;48.510;-2.770;2023-08-01T08:13:30;19.00;96.30
73572;DHT22;61854;48.510;-2.770;2023-08-01T08:15:56;19.20;96.40
73572;DHT22;61854;48.510;-2.770;2023-08-01T08:18:22;19.20;95.10
73572;DHT22;61854;48.510;-2.770;2023-08-01T08:20:48;19.30;93.00
73572;DHT22;61854;48.510;-2.770;2023-08-01T08:23:14;19.10;95.30
73572;DHT22;61854;48.510;-2.770;2023-08-01T08:25:40;19.20;95.30
73572;DHT22;61854;48.510;-2.770;2023-08-01T08:28:07;19.00;95.00
73572;DHT22;61854;48.510;-2.770;2023-08-01T08:30:33;18.90;95.50
73572;DHT22;61854;48.510;-2.770;2023-08-01T08:32:58;18.80;96.10
73572;DHT22;61854;48.510;-2.770;2023-08-01T08:35:33;18.70;96.10
73572;DHT22;61854;48.510;-2.770;2023-08-01T08:38:01;18.70;95.80
73572;DHT22;61854;48.510;-2.770;2023-08-01T08:40:27;18.60;95.70
73572;DHT22;61854;48.510;-2.770;2023-08-01T08:42:56;18.60;96.40
73572;DHT22;61854;48.510;-2.770;2023-08-01T08:45:23;18.70;96.10
73572;DHT22;61854;48.510;-2.770;2023-08-01T08:47:55;18.90;96.70
73572;DHT22;61854;48.510;-2.770;2023-08-01T08:50:21;19.50;94.00
73572;DHT22;61854;48.510;-2.770;2023-08-01T08:52:47;19.50;93.40
73572;DHT22;61854;48.510;-2.770;2023-08-01T08:55:13;19.60;93.00
73572;DHT22;61854;48.510;-2.770;2023-08-01T08:57:39;19.30;93.30
73572;DHT22;61854;48.510;-2.770;2023-08-01T09:00:06;19.40;93.40
73572;DHT22;61854;48.510;-2.770;2023-08-01T09:02:34;19.50;93.60
73572;DHT22;61854;48.510;-2.770;2023-08-01T09:05:00;19.20;94.70
73572;DHT22;61854;48.510;-2.770;2023-08-01T09:07:29;19.30;94.50
73572;DHT22;61854;48.510;-2.770;2023-08-01T09:09:55;19.30;94.40
73572;DHT22;61854;48.510;-2.770;2023-08-01T09:12:21;19.30;93.50
73572;DHT22;61854;48.510;-2.770;2023-08-01T09:14:48;19.30;93.00
73572;DHT22;61854;48.510;-2.770;2023-08-01T09:17:15;19.50;93.10
73572;DHT22;61854;48.510;-2.770;2023-08-01T09:19:44;19.60;92.90
73572;DHT22;61854;48.510;-2.770;2023-08-01T09:22:11;19.30;92.80
73572;DHT22;61854;48.510;-2.770;2023-08-01T09:24:37;19.20;94.10
73572;DHT22;61854;48.510;-2.770;2023-08-01T09:27:03;19.20;94.70
73572;DHT22;61854;48.510;-2.770;2023-08-01T09:29:33;19.30;94.50
73572;DHT22;61854;48.510;-2.770;2023-08-01T09:31:59;19.40;94.40
73572;DHT22;61854;48.510;-2.770;2023-08-01T09:34:26;19.70;93.30
73572;DHT22;61854;48.510;-2.770;2023-08-01T09:36:59;19.90;92.80
73572;DHT22;61854;48.510;-2.770;2023-08-01T09:39:26;19.90;93.00
73572;DHT22;61854;48.510;-2.770;2023-08-01T09:41:59;20.10;92.70
73572;DHT22;61854;48.510;-2.770;2023-08-01T09:44:26;20.00;92.90
73572;DHT22;61854;48.510;-2.770;2023-08-01T09:49:22;20.40;91.90
73572;DHT22;61854;48.510;-2.770;2023-08-01T09:51:48;20.30;92.50
73572;DHT22;61854;48.510;-2.770;2023-08-01T09:54:16;20.30;92.90
73572;DHT22;61854;48.510;-2.770;2023-08-01T09:56:46;20.40;92.00
73572;DHT22;61854;48.510;-2.770;2023-08-01T09:59:13;20.50;91.90
73572;DHT22;61854;48.510;-2.770;2023-08-01T10:01:44;20.50;91.60
73572;DHT22;61854;48.510;-2.770;2023-08-01T10:04:12;20.50;91.40
73572;DHT22;61854;48.510;-2.770;2023-08-01T10:06:41;20.30;92.10
73572;DHT22;61854;48.510;-2.770;2023-08-01T10:09:10;20.40;91.40
73572;DHT22;61854;48.510;-2.770;2023-08-01T10:11:38;20.40;91.30
73572;DHT22;61854;48.510;-2.770;2023-08-01T10:14:08;20.50;90.90
73572;DHT22;61854;48.510;-2.770;2023-08-01T10:16:34;20.40;91.50
73572;DHT22;61854;48.510;-2.770;2023-08-01T10:19:03;20.10;93.30
73572;DHT22;61854;48.510;-2.770;2023-08-01T10:21:31;19.90;93.10
73572;DHT22;61854;48.510;-2.770;2023-08-01T10:23:58;19.60;95.40
73572;DHT22;61854;48.510;-2.770;2023-08-01T10:26:24;19.40;95.40
73572;DHT22;61854;48.510;-2.770;2023-08-01T10:28:52;19.20;96.50
73572;DHT22;61854;48.510;-2.770;2023-08-01T10:31:19;19.10;96.20
73572;DHT22;61854;48.510;-2.770;2023-08-01T10:33:47;19.10;97.00
73572;DHT22;61854;48.510;-2.770;2023-08-01T10:36:23;19.20;96.80
73572;DHT22;61854;48.510;-2.770;2023-08-01T10:38:53;19.40;96.10
73572;DHT22;61854;48.510;-2.770;2023-08-01T10:43:45;19.50;95.80
73572;DHT22;61854;48.510;-2.770;2023-08-01T10:46:10;19.50;95.50
73572;DHT22;61854;48.510;-2.770;2023-08-01T10:48:56;19.70;95.30
73572;DHT22;61854;48.510;-2.770;2023-08-01T10:51:22;19.80;96.00
73572;DHT22;61854;48.510;-2.770;2023-08-01T10:53:47;19.70;96.50
73572;DHT22;61854;48.510;-2.770;2023-08-01T10:56:18;19.80;95.80
73572;DHT22;61854;48.510;-2.770;2023-08-01T10:58:44;20.00;95.70
73572;DHT22;61854;48.510;-2.770;2023-08-01T11:01:09;20.00;95.50
73572;DHT22;61854;48.510;-2.770;2023-08-01T11:03:36;20.10;94.80
73572;DHT22;61854;48.510;-2.770;2023-08-01T11:06:02;20.30;92.90
73572;DHT22;61854;48.510;-2.770;2023-08-01T11:08:39;20.30;93.30
73572;DHT22;61854;48.510;-2.770;2023-08-01T11:11:07;20.30;93.60
73572;DHT22;61854;48.510;-2.770;2023-08-01T11:13:33;20.40;92.60
73572;DHT22;61854;48.510;-2.770;2023-08-01T11:16:02;20.50;93.30
73572;DHT22;61854;48.510;-2.770;2023-08-01T11:18:28;20.60;92.10
73572;DHT22;61854;48.510;-2.770;2023-08-01T11:20:54;20.60;92.90
73572;DHT22;61854;48.510;-2.770;2023-08-01T11:23:27;20.70;93.40
73572;DHT22;61854;48.510;-2.770;2023-08-01T11:25:53;20.70;94.00
73572;DHT22;61854;48.510;-2.770;2023-08-01T11:28:20;20.60;93.90
73572;DHT22;61854;48.510;-2.770;2023-08-01T11:30:55;20.60;93.50
73572;DHT22;61854;48.510;-2.770;2023-08-01T11:33:23;20.50;93.10
73572;DHT22;61854;48.510;-2.770;2023-08-01T11:35:56;20.60;93.30
73572;DHT22;61854;48.510;-2.770;2023-08-01T11:38:27;20.50;93.00
73572;DHT22;61854;48.510;-2.770;2023-08-01T11:40:59;20.60;92.20
73572;DHT22;61854;48.510;-2.770;2023-08-01T11:43:25;20.40;92.30
73572;DHT22;61854;48.510;-2.770;2023-08-01T11:45:56;20.30;92.70
73572;DHT22;61854;48.510;-2.770;2023-08-01T11:48:24;20.30;92.30
73572;DHT22;61854;48.510;-2.770;2023-08-01T11:51:10;20.30;93.40
73572;DHT22;61854;48.510;-2.770;2023-08-01T11:53:36;20.30;92.90
73572;DHT22;61854;48.510;-2.770;2023-08-01T11:56:04;20.30;93.00
73572;DHT22;61854;48.510;-2.770;2023-08-01T11:58:39;20.30;92.20
73572;DHT22;61854;48.510;-2.770;2023-08-01T12:01:09;20.40;91.80
73572;DHT22;61854;48.510;-2.770;2023-08-01T12:03:48;20.40;92.10
73572;DHT22;61854;48.510;-2.770;2023-08-01T12:06:15;20.30;92.50
73572;DHT22;61854;48.510;-2.770;2023-08-01T12:08:45;20.40;92.00
73572;DHT22;61854;48.510;-2.770;2023-08-01T12:11:37;20.30;92.30
73572;DHT22;61854;48.510;-2.770;2023-08-01T12:16:45;20.40;92.20
73572;DHT22;61854;48.510;-2.770;2023-08-01T12:19:17;20.30;92.30
73572;DHT22;61854;48.510;-2.770;2023-08-01T12:21:44;20.30;92.00
73572;DHT22;61854;48.510;-2.770;2023-08-01T12:24:10;20.30;92.50
73572;DHT22;61854;48.510;-2.770;2023-08-01T12:26:35;20.20;93.70
73572;DHT22;61854;48.510;-2.770;2023-08-01T12:29:01;20.20;94.00
73572;DHT22;61854;48.510;-2.770;2023-08-01T12:31:27;20.10;94.70
73572;DHT22;61854;48.510;-2.770;2023-08-01T12:33:53;20.20;93.20
73572;DHT22;61854;48.510;-2.770;2023-08-01T12:36:19;20.10;94.30
73572;DHT22;61854;48.510;-2.770;2023-08-01T12:38:45;20.00;93.60
73572;DHT22;61854;48.510;-2.770;2023-08-01T12:41:10;20.10;94.30
73572;DHT22;61854;48.510;-2.770;2023-08-01T12:43:37;20.10;93.90
73572;DHT22;61854;48.510;-2.770;2023-08-01T12:46:03;20.10;93.00
73572;DHT22;61854;48.510;-2.770;2023-08-01T12:48:29;20.20;92.90
73572;DHT22;61854;48.510;-2.770;2023-08-01T12:50:55;20.40;92.10
73572;DHT22;61854;48.510;-2.770;2023-08-01T12:53:21;20.40;92.10
73572;DHT22;61854;48.510;-2.770;2023-08-01T12:55:49;20.50;91.30
73572;DHT22;61854;48.510;-2.770;2023-08-01T12:58:15;20.50;90.80
73572;DHT22;61854;48.510;-2.770;2023-08-01T13:00:42;20.50;91.10
73572;DHT22;61854;48.510;-2.770;2023-08-01T13:03:08;20.40;91.10
73572;DHT22;61854;48.510;-2.770;2023-08-01T13:05:35;20.30;91.50
73572;DHT22;61854;48.510;-2.770;2023-08-01T13:08:01;20.50;91.00
73572;DHT22;61854;48.510;-2.770;2023-08-01T13:10:30;20.50;90.60
73572;DHT22;61854;48.510;-2.770;2023-08-01T13:12:55;20.50;91.30
73572;DHT22;61854;48.510;-2.770;2023-08-01T13:15:21;20.50;91.80
73572;DHT22;61854;48.510;-2.770;2023-08-01T13:17:47;20.60;91.50
73572;DHT22;61854;48.510;-2.770;2023-08-01T13:20:12;20.50;90.80
73572;DHT22;61854;48.510;-2.770;2023-08-01T13:22:38;20.40;90.00
73572;DHT22;61854;48.510;-2.770;2023-08-01T13:25:04;20.50;90.00
73572;DHT22;61854;48.510;-2.770;2023-08-01T13:27:33;20.50;88.20
73572;DHT22;61854;48.510;-2.770;2023-08-01T13:29:59;20.50;86.60
73572;DHT22;61854;48.510;-2.770;2023-08-01T13:32:25;20.50;86.10
73572;DHT22;61854;48.510;-2.770;2023-08-01T13:34:50;20.40;87.50
73572;DHT22;61854;48.510;-2.770;2023-08-01T13:37:16;20.30;87.70
73572;DHT22;61854;48.510;-2.770;2023-08-01T13:39:41;20.30;85.60
73572;DHT22;61854;48.510;-2.770;2023-08-01T13:42:07;20.30;85.50
73572;DHT22;61854;48.510;-2.770;2023-08-01T13:44:33;20.40;85.60
73572;DHT22;61854;48.510;-2.770;2023-08-01T13:46:59;20.20;86.80
73572;DHT22;61854;48.510;-2.770;2023-08-01T13:49:25;20.20;87.20
73572;DHT22;61854;48.510;-2.770;2023-08-01T13:51:51;20.30;86.50
73572;DHT22;61854;48.510;-2.770;2023-08-01T13:54:16;20.20;87.10
73572;DHT22;61854;48.510;-2.770;2023-08-01T13:56:42;20.30;87.40
73572;DHT22;61854;48.510;-2.770;2023-08-01T13:59:07;20.30;88.60
73572;DHT22;61854;48.510;-2.770;2023-08-01T14:01:34;20.20;87.80
73572;DHT22;61854;48.510;-2.770;2023-08-01T14:04:01;20.10;87.20
73572;DHT22;61854;48.510;-2.770;2023-08-01T14:06:26;20.20;87.70
73572;DHT22;61854;48.510;-2.770;2023-08-01T14:08:52;20.20;89.10
73572;DHT22;61854;48.510;-2.770;2023-08-01T14:11:17;20.10;90.00
73572;DHT22;61854;48.510;-2.770;2023-08-01T14:13:43;20.20;89.90
73572;DHT22;61854;48.510;-2.770;2023-08-01T14:16:09;20.20;88.70
73572;DHT22;61854;48.510;-2.770;2023-08-01T14:18:34;20.30;87.70
73572;DHT22;61854;48.510;-2.770;2023-08-01T14:21:00;20.40;85.80
73572;DHT22;61854;48.510;-2.770;2023-08-01T14:23:27;20.20;87.40
73572;DHT22;61854;48.510;-2.770;2023-08-01T14:25:53;20.20;87.10
73572;DHT22;61854;48.510;-2.770;2023-08-01T14:28:18;20.30;87.70
73572;DHT22;61854;48.510;-2.770;2023-08-01T14:30:44;20.20;89.40
73572;DHT22;61854;48.510;-2.770;2023-08-01T14:33:10;20.10;89.70
73572;DHT22;61854;48.510;-2.770;2023-08-01T14:35:36;20.10;89.80
73572;DHT22;61854;48.510;-2.770;2023-08-01T14:38:02;20.00;90.10
73572;DHT22;61854;48.510;-2.770;2023-08-01T14:40:29;20.10;90.10
73572;DHT22;61854;48.510;-2.770;2023-08-01T14:42:55;20.00;90.10
73572;DHT22;61854;48.510;-2.770;2023-08-01T14:45:21;20.00;90.20
73572;DHT22;61854;48.510;-2.770;2023-08-01T14:47:47;20.00;90.80
73572;DHT22;61854;48.510;-2.770;2023-08-01T14:50:13;20.00;90.90
73572;DHT22;61854;48.510;-2.770;2023-08-01T14:52:40;19.90;91.20
73572;DHT22;61854;48.510;-2.770;2023-08-01T14:55:06;19.80;91.80
73572;DHT22;61854;48.510;-2.770;2023-08-01T14:57:32;19.80;92.00
73572;DHT22;61854;48.510;-2.770;2023-08-01T14:59:58;19.70;92.20
73572;DHT22;61854;48.510;-2.770;2023-08-01T15:02:24;19.70;92.60
73572;DHT22;61854;48.510;-2.770;2023-08-01T15:04:54;19.70;92.90
73572;DHT22;61854;48.510;-2.770;2023-08-01T15:07:21;19.70;93.50
73572;DHT22;61854;48.510;-2.770;2023-08-01T15:09:47;19.60;93.60
73572;DHT22;61854;48.510;-2.770;2023-08-01T15:12:15;19.60;94.00
73572;DHT22;61854;48.510;-2.770;2023-08-01T15:14:41;19.50;93.80
73572;DHT22;61854;48.510;-2.770;2023-08-01T15:17:06;19.40;94.90
73572;DHT22;61854;48.510;-2.770;2023-08-01T15:19:34;19.40;94.80